N178WP KELP-KSAN
Flight info
| Callsign | N178WP |
|---|---|
| Flight time | 1h 59m |
| Altitude | 44000 |
| Route | ATKNN5 FLOGS SSO J50 GBN J2 HOGGZ LUCKI1 |
| Aircraft | C25B/L-SDE2E3FGHRWXY/LB1 |
Departure
| Time | 2026-04-24 21:20 |
|---|---|
| Airport | El Paso International Airport (KELP) |
Arrival
| Time | 2026-04-24 23:20 |
|---|---|
| Airport | San Diego International Airport (KSAN) |
| Time | Latitude | Longitude | Altitude | Speed | Heading |
|---|---|---|---|---|---|
| 2026-04-24 20:48 | 31.79772 | -106.37639 | 3947 ft | 0 kts | 226° |
| 2026-04-24 21:12 | 31.79771 | -106.37640 | 3947 ft | 0 kts | 236° |
| 2026-04-24 21:12 | 31.79791 | -106.37660 | 3946 ft | 8 kts | 332° |
| 2026-04-24 21:12 | 31.79853 | -106.37688 | 3946 ft | 10 kts | 344° |
| 2026-04-24 21:13 | 31.79903 | -106.37736 | 3945 ft | 11 kts | 284° |
| 2026-04-24 21:13 | 31.79961 | -106.37743 | 3944 ft | 10 kts | 44° |
| 2026-04-24 21:13 | 31.79979 | -106.37675 | 3945 ft | 8 kts | 91° |
| 2026-04-24 21:13 | 31.79978 | -106.37609 | 3947 ft | 7 kts | 95° |
| 2026-04-24 21:14 | 31.79972 | -106.37542 | 3948 ft | 9 kts | 93° |
| 2026-04-24 21:14 | 31.79969 | -106.37453 | 3949 ft | 13 kts | 91° |
| 2026-04-24 21:14 | 31.79962 | -106.37331 | 3951 ft | 16 kts | 95° |
| 2026-04-24 21:14 | 31.79958 | -106.37188 | 3952 ft | 18 kts | 94° |
| 2026-04-24 21:15 | 31.79949 | -106.37034 | 3955 ft | 19 kts | 92° |
| 2026-04-24 21:15 | 31.79941 | -106.36869 | 3957 ft | 21 kts | 95° |
| 2026-04-24 21:15 | 31.79932 | -106.36697 | 3959 ft | 22 kts | 94° |
| 2026-04-24 21:15 | 31.79923 | -106.36519 | 3960 ft | 22 kts | 92° |
| 2026-04-24 21:16 | 31.79918 | -106.36402 | 3961 ft | 21 kts | 93° |
| 2026-04-24 21:16 | 31.79910 | -106.36231 | 3963 ft | 20 kts | 93° |
| 2026-04-24 21:16 | 31.79902 | -106.36069 | 3963 ft | 18 kts | 92° |
| 2026-04-24 21:16 | 31.79937 | -106.35987 | 3965 ft | 9 kts | 7° |
| 2026-04-24 21:17 | 31.79970 | -106.35985 | 3966 ft | 0 kts | 2° |
| 2026-04-24 21:19 | 31.80006 | -106.35983 | 3968 ft | 11 kts | 4° |
| 2026-04-24 21:19 | 31.80063 | -106.36026 | 3968 ft | 12 kts | 274° |
| 2026-04-24 21:19 | 31.80075 | -106.36267 | 3962 ft | 67 kts | 273° |
| 2026-04-24 21:20 | 31.80158 | -106.38198 | 5459 ft | 138 kts | 270° |
| 2026-04-24 21:20 | 31.80023 | -106.39520 | 6104 ft | 186 kts | 244° |
| 2026-04-24 21:20 | 31.79168 | -106.40780 | 7056 ft | 210 kts | 235° |
| 2026-04-24 21:21 | 31.78503 | -106.42282 | 8521 ft | 207 kts | 248° |
| 2026-04-24 21:21 | 31.77926 | -106.43826 | 9947 ft | 205 kts | 247° |
| 2026-04-24 21:21 | 31.77339 | -106.45395 | 10780 ft | 211 kts | 248° |
| 2026-04-24 21:21 | 31.76790 | -106.47007 | 11675 ft | 213 kts | 256° |
| 2026-04-24 21:22 | 31.76591 | -106.48731 | 12599 ft | 213 kts | 266° |
| 2026-04-24 21:22 | 31.76723 | -106.50470 | 13537 ft | 215 kts | 280° |
| 2026-04-24 21:22 | 31.77194 | -106.52153 | 14383 ft | 220 kts | 292° |
| 2026-04-24 21:22 | 31.78007 | -106.53681 | 15208 ft | 226 kts | 301° |
| 2026-04-24 21:23 | 31.78892 | -106.55217 | 16143 ft | 228 kts | 299° |
| 2026-04-24 21:23 | 31.79786 | -106.56777 | 17129 ft | 231 kts | 300° |
| 2026-04-24 21:23 | 31.80584 | -106.58424 | 18078 ft | 232 kts | 289° |
| 2026-04-24 21:23 | 31.81069 | -106.60244 | 18954 ft | 233 kts | 280° |
| 2026-04-24 21:24 | 31.81391 | -106.62108 | 19868 ft | 233 kts | 280° |
| 2026-04-24 21:24 | 31.81742 | -106.63946 | 20776 ft | 233 kts | 280° |
| 2026-04-24 21:24 | 31.82091 | -106.65820 | 21693 ft | 235 kts | 279° |
| 2026-04-24 21:24 | 31.82441 | -106.67718 | 22407 ft | 246 kts | 279° |
| 2026-04-24 21:25 | 31.82813 | -106.69784 | 22709 ft | 268 kts | 280° |
| 2026-04-24 21:25 | 31.83215 | -106.71934 | 23583 ft | 268 kts | 279° |
| 2026-04-24 21:25 | 31.83613 | -106.74120 | 23974 ft | 284 kts | 279° |
| 2026-04-24 21:25 | 31.84033 | -106.76411 | 24465 ft | 290 kts | 280° |
| 2026-04-24 21:26 | 31.84455 | -106.78712 | 25329 ft | 285 kts | 280° |
| 2026-04-24 21:26 | 31.84873 | -106.80974 | 26192 ft | 281 kts | 279° |
| 2026-04-24 21:26 | 31.85278 | -106.83217 | 27066 ft | 278 kts | 279° |
| 2026-04-24 21:26 | 31.85682 | -106.85431 | 27956 ft | 275 kts | 279° |
| 2026-04-24 21:27 | 31.86076 | -106.87615 | 28898 ft | 271 kts | 279° |
| 2026-04-24 21:27 | 31.86469 | -106.89768 | 29832 ft | 267 kts | 279° |
| 2026-04-24 21:27 | 31.86854 | -106.91896 | 30637 ft | 264 kts | 279° |
| 2026-04-24 21:27 | 31.87229 | -106.93966 | 31428 ft | 260 kts | 279° |
| 2026-04-24 21:28 | 31.87604 | -106.96032 | 32230 ft | 256 kts | 279° |
| 2026-04-24 21:28 | 31.87970 | -106.98069 | 33032 ft | 252 kts | 279° |
| 2026-04-24 21:28 | 31.88335 | -107.00078 | 33832 ft | 249 kts | 279° |
| 2026-04-24 21:28 | 31.88689 | -107.02053 | 34534 ft | 243 kts | 279° |
| 2026-04-24 21:29 | 31.89041 | -107.03998 | 35171 ft | 242 kts | 279° |
| 2026-04-24 21:29 | 31.89388 | -107.05933 | 35791 ft | 241 kts | 279° |
| 2026-04-24 21:29 | 31.89734 | -107.07851 | 36440 ft | 238 kts | 278° |
| 2026-04-24 21:29 | 31.90075 | -107.09744 | 37068 ft | 236 kts | 279° |
| 2026-04-24 21:30 | 31.90407 | -107.11604 | 37702 ft | 233 kts | 278° |
| 2026-04-24 21:30 | 31.90742 | -107.13462 | 38336 ft | 231 kts | 279° |
| 2026-04-24 21:30 | 31.91071 | -107.15304 | 38833 ft | 230 kts | 278° |
| 2026-04-24 21:30 | 31.91402 | -107.17147 | 39277 ft | 230 kts | 278° |
| 2026-04-24 21:31 | 31.91730 | -107.18992 | 39716 ft | 230 kts | 278° |
| 2026-04-24 21:31 | 31.92065 | -107.20846 | 40157 ft | 231 kts | 278° |
| 2026-04-24 21:31 | 31.92393 | -107.22695 | 40604 ft | 231 kts | 278° |
| 2026-04-24 21:31 | 31.92724 | -107.24554 | 41056 ft | 232 kts | 278° |
| 2026-04-24 21:32 | 31.93052 | -107.26386 | 41497 ft | 232 kts | 278° |
| 2026-04-24 21:32 | 31.93384 | -107.28247 | 41928 ft | 232 kts | 278° |
| 2026-04-24 21:32 | 31.93715 | -107.30106 | 42369 ft | 232 kts | 278° |
| 2026-04-24 21:32 | 31.94045 | -107.31970 | 42810 ft | 233 kts | 278° |
| 2026-04-24 21:33 | 31.94379 | -107.33836 | 43242 ft | 233 kts | 278° |
| 2026-04-24 21:33 | 31.94708 | -107.35704 | 43675 ft | 233 kts | 278° |
| 2026-04-24 21:33 | 31.95047 | -107.37611 | 43759 ft | 244 kts | 278° |
| 2026-04-24 21:33 | 31.95397 | -107.39601 | 43769 ft | 250 kts | 278° |
| 2026-04-24 21:34 | 31.95759 | -107.41630 | 43776 ft | 254 kts | 278° |
| 2026-04-24 21:34 | 31.96086 | -107.43479 | 43770 ft | 258 kts | 278° |
| 2026-04-24 21:34 | 31.96450 | -107.45538 | 43775 ft | 261 kts | 278° |
| 2026-04-24 21:34 | 31.96822 | -107.47647 | 43776 ft | 265 kts | 278° |
| 2026-04-24 21:35 | 31.97199 | -107.49786 | 43787 ft | 268 kts | 278° |
| 2026-04-24 21:35 | 31.97582 | -107.51951 | 43797 ft | 271 kts | 278° |
| 2026-04-24 21:35 | 31.97965 | -107.54138 | 43810 ft | 274 kts | 278° |
| 2026-04-24 21:35 | 31.98355 | -107.56345 | 43814 ft | 277 kts | 278° |
| 2026-04-24 21:36 | 31.98744 | -107.58572 | 43828 ft | 279 kts | 278° |
| 2026-04-24 21:36 | 31.99140 | -107.60819 | 43832 ft | 281 kts | 278° |
| 2026-04-24 21:36 | 31.99534 | -107.63082 | 43839 ft | 283 kts | 278° |
| 2026-04-24 21:36 | 31.99935 | -107.65361 | 43848 ft | 285 kts | 278° |
| 2026-04-24 21:37 | 32.00335 | -107.67657 | 43854 ft | 287 kts | 278° |
| 2026-04-24 21:37 | 32.00738 | -107.69961 | 43859 ft | 288 kts | 278° |
| 2026-04-24 21:37 | 32.01139 | -107.72251 | 43858 ft | 289 kts | 278° |
| 2026-04-24 21:37 | 32.01542 | -107.74578 | 43866 ft | 291 kts | 278° |
| 2026-04-24 21:38 | 32.01951 | -107.76914 | 43863 ft | 292 kts | 278° |
| 2026-04-24 21:38 | 32.02357 | -107.79260 | 43860 ft | 293 kts | 278° |
| 2026-04-24 21:38 | 32.02768 | -107.81611 | 43861 ft | 293 kts | 278° |
| 2026-04-24 21:38 | 32.03174 | -107.83974 | 43863 ft | 294 kts | 278° |
| 2026-04-24 21:39 | 32.03586 | -107.86340 | 43861 ft | 295 kts | 278° |
| 2026-04-24 21:39 | 32.03997 | -107.88714 | 43856 ft | 295 kts | 278° |
| 2026-04-24 21:39 | 32.04407 | -107.91091 | 43852 ft | 296 kts | 278° |
| 2026-04-24 21:39 | 32.04814 | -107.93440 | 43846 ft | 296 kts | 278° |
| 2026-04-24 21:40 | 32.05223 | -107.95821 | 43832 ft | 297 kts | 278° |
| 2026-04-24 21:40 | 32.05635 | -107.98212 | 43833 ft | 297 kts | 278° |
| 2026-04-24 21:40 | 32.06048 | -108.00603 | 43825 ft | 297 kts | 278° |
| 2026-04-24 21:40 | 32.06456 | -108.02992 | 43812 ft | 298 kts | 278° |
| 2026-04-24 21:41 | 32.06870 | -108.05388 | 43811 ft | 298 kts | 278° |
| 2026-04-24 21:41 | 32.07279 | -108.07784 | 43796 ft | 298 kts | 278° |
| 2026-04-24 21:41 | 32.07691 | -108.10186 | 43803 ft | 298 kts | 278° |
| 2026-04-24 21:41 | 32.08101 | -108.12584 | 43800 ft | 298 kts | 278° |
| 2026-04-24 21:42 | 32.08505 | -108.14954 | 43799 ft | 300 kts | 278° |
| 2026-04-24 21:42 | 32.09332 | -108.19805 | 43803 ft | 304 kts | 278° |
| 2026-04-24 21:43 | 32.10172 | -108.24734 | 43800 ft | 308 kts | 278° |
| 2026-04-24 21:43 | 32.11017 | -108.29723 | 43804 ft | 312 kts | 278° |
| 2026-04-24 21:44 | 32.11869 | -108.34751 | 43804 ft | 316 kts | 278° |
| 2026-04-24 21:44 | 32.12730 | -108.39851 | 43832 ft | 318 kts | 278° |
| 2026-04-24 21:45 | 32.13595 | -108.44994 | 43847 ft | 320 kts | 277° |
| 2026-04-24 21:45 | 32.14463 | -108.50164 | 43869 ft | 322 kts | 277° |
| 2026-04-24 21:46 | 32.15333 | -108.55359 | 43890 ft | 323 kts | 277° |
| 2026-04-24 21:46 | 32.16204 | -108.60569 | 43902 ft | 324 kts | 277° |
| 2026-04-24 21:47 | 32.17076 | -108.65800 | 43914 ft | 325 kts | 277° |
| 2026-04-24 21:47 | 32.17946 | -108.71042 | 43919 ft | 326 kts | 277° |
| 2026-04-24 21:48 | 32.18813 | -108.76267 | 43918 ft | 327 kts | 277° |
| 2026-04-24 21:48 | 32.19684 | -108.81537 | 43911 ft | 327 kts | 277° |
| 2026-04-24 21:49 | 32.20556 | -108.86824 | 43894 ft | 328 kts | 277° |
| 2026-04-24 21:49 | 32.21425 | -108.92109 | 43873 ft | 328 kts | 277° |
| 2026-04-24 21:50 | 32.22295 | -108.97412 | 43848 ft | 328 kts | 277° |
| 2026-04-24 21:50 | 32.23158 | -109.02699 | 43818 ft | 328 kts | 277° |
| 2026-04-24 21:51 | 32.24024 | -109.08002 | 43795 ft | 329 kts | 277° |
| 2026-04-24 21:51 | 32.24881 | -109.13275 | 43782 ft | 329 kts | 277° |
| 2026-04-24 21:52 | 32.25740 | -109.18595 | 43780 ft | 329 kts | 277° |
| 2026-04-24 21:52 | 32.26553 | -109.23920 | 43786 ft | 329 kts | 277° |
| 2026-04-24 21:53 | 32.27640 | -109.29190 | 43785 ft | 331 kts | 282° |
| 2026-04-24 21:53 | 32.28910 | -109.34423 | 43784 ft | 331 kts | 281° |
| 2026-04-24 21:54 | 32.30191 | -109.39648 | 43785 ft | 329 kts | 281° |
| 2026-04-24 21:54 | 32.31445 | -109.44800 | 43780 ft | 325 kts | 281° |
| 2026-04-24 21:55 | 32.32687 | -109.49910 | 43772 ft | 322 kts | 281° |
| 2026-04-24 21:55 | 32.33917 | -109.54975 | 43763 ft | 319 kts | 281° |
| 2026-04-24 21:56 | 32.35126 | -109.59968 | 43769 ft | 317 kts | 281° |
| 2026-04-24 21:56 | 32.36344 | -109.64998 | 43769 ft | 315 kts | 281° |
| 2026-04-24 21:57 | 32.37538 | -109.69945 | 43775 ft | 314 kts | 281° |
| 2026-04-24 21:57 | 32.38736 | -109.74911 | 43777 ft | 313 kts | 281° |
| 2026-04-24 21:58 | 32.39924 | -109.79855 | 43778 ft | 312 kts | 281° |
| 2026-04-24 21:58 | 32.41111 | -109.84798 | 43781 ft | 312 kts | 281° |
| 2026-04-24 21:59 | 32.42295 | -109.89745 | 43786 ft | 312 kts | 281° |
| 2026-04-24 21:59 | 32.43475 | -109.94681 | 43785 ft | 311 kts | 281° |
| 2026-04-24 22:00 | 32.44645 | -109.99581 | 43795 ft | 311 kts | 281° |
| 2026-04-24 22:00 | 32.45817 | -110.04495 | 43802 ft | 310 kts | 281° |
| 2026-04-24 22:01 | 32.46985 | -110.09408 | 43806 ft | 309 kts | 281° |
| 2026-04-24 22:01 | 32.48151 | -110.14318 | 43803 ft | 310 kts | 280° |
| 2026-04-24 22:02 | 32.49315 | -110.19242 | 43806 ft | 310 kts | 281° |
| 2026-04-24 22:02 | 32.50483 | -110.24173 | 43804 ft | 310 kts | 281° |
| 2026-04-24 22:03 | 32.51641 | -110.29080 | 43798 ft | 312 kts | 281° |
| 2026-04-24 22:03 | 32.52800 | -110.34006 | 43798 ft | 313 kts | 281° |
| 2026-04-24 22:04 | 32.53972 | -110.38985 | 43803 ft | 314 kts | 280° |
| 2026-04-24 22:04 | 32.55142 | -110.43976 | 43806 ft | 313 kts | 281° |
| 2026-04-24 22:05 | 32.56299 | -110.48921 | 43803 ft | 313 kts | 280° |
| 2026-04-24 22:05 | 32.57461 | -110.53885 | 43806 ft | 312 kts | 280° |
| 2026-04-24 22:06 | 32.58616 | -110.58835 | 43805 ft | 311 kts | 280° |
| 2026-04-24 22:06 | 32.59763 | -110.63762 | 43806 ft | 309 kts | 280° |
| 2026-04-24 22:07 | 32.60708 | -110.67832 | 43798 ft | 307 kts | 280° |
| 2026-04-24 22:07 | 32.61839 | -110.72705 | 43795 ft | 305 kts | 280° |
| 2026-04-24 22:08 | 32.62962 | -110.77558 | 43796 ft | 304 kts | 280° |
| 2026-04-24 22:08 | 32.64080 | -110.82400 | 43791 ft | 304 kts | 280° |
| 2026-04-24 22:09 | 32.65189 | -110.87206 | 43793 ft | 304 kts | 280° |
| 2026-04-24 22:09 | 32.66302 | -110.92043 | 43797 ft | 303 kts | 280° |
| 2026-04-24 22:10 | 32.67412 | -110.96872 | 43801 ft | 303 kts | 280° |
| 2026-04-24 22:10 | 32.68518 | -111.01698 | 43808 ft | 303 kts | 280° |
| 2026-04-24 22:11 | 32.69623 | -111.06523 | 43815 ft | 303 kts | 280° |
| 2026-04-24 22:11 | 32.70726 | -111.11355 | 43818 ft | 303 kts | 280° |
| 2026-04-24 22:12 | 32.71827 | -111.16180 | 43825 ft | 303 kts | 279° |
| 2026-04-24 22:12 | 32.72916 | -111.20973 | 43826 ft | 303 kts | 280° |
| 2026-04-24 22:13 | 32.74015 | -111.25810 | 43828 ft | 303 kts | 280° |
| 2026-04-24 22:13 | 32.75111 | -111.30640 | 43827 ft | 302 kts | 280° |
| 2026-04-24 22:14 | 32.76199 | -111.35450 | 43821 ft | 299 kts | 279° |
| 2026-04-24 22:14 | 32.76736 | -111.37833 | 43807 ft | 297 kts | 280° |
| 2026-04-24 22:14 | 32.77264 | -111.40160 | 43821 ft | 295 kts | 279° |
| 2026-04-24 22:14 | 32.77791 | -111.42508 | 43815 ft | 294 kts | 279° |
| 2026-04-24 22:15 | 32.78319 | -111.44849 | 43817 ft | 293 kts | 279° |
| 2026-04-24 22:15 | 32.78843 | -111.47184 | 43802 ft | 292 kts | 279° |
| 2026-04-24 22:15 | 32.79368 | -111.49513 | 43809 ft | 290 kts | 279° |
| 2026-04-24 22:15 | 32.79888 | -111.51832 | 43811 ft | 289 kts | 279° |
| 2026-04-24 22:16 | 32.80406 | -111.54141 | 43817 ft | 288 kts | 279° |
| 2026-04-24 22:16 | 32.80924 | -111.56444 | 43819 ft | 288 kts | 279° |
| 2026-04-24 22:16 | 32.81429 | -111.58708 | 43819 ft | 287 kts | 279° |
| 2026-04-24 22:16 | 32.81951 | -111.61031 | 43823 ft | 286 kts | 279° |
| 2026-04-24 22:17 | 32.82454 | -111.63289 | 43833 ft | 286 kts | 279° |
| 2026-04-24 22:17 | 32.82965 | -111.65571 | 43833 ft | 285 kts | 279° |
| 2026-04-24 22:17 | 32.83474 | -111.67853 | 43835 ft | 285 kts | 279° |
| 2026-04-24 22:17 | 32.83981 | -111.70127 | 43837 ft | 284 kts | 279° |
| 2026-04-24 22:18 | 32.84490 | -111.72408 | 43835 ft | 284 kts | 279° |
| 2026-04-24 22:18 | 32.84995 | -111.74678 | 43845 ft | 284 kts | 279° |
| 2026-04-24 22:18 | 32.85499 | -111.76947 | 43843 ft | 283 kts | 279° |
| 2026-04-24 22:18 | 32.86003 | -111.79214 | 43841 ft | 283 kts | 279° |
| 2026-04-24 22:19 | 32.86506 | -111.81478 | 43850 ft | 283 kts | 279° |
| 2026-04-24 22:19 | 32.87007 | -111.83742 | 43841 ft | 283 kts | 279° |
| 2026-04-24 22:19 | 32.87503 | -111.85973 | 43842 ft | 282 kts | 279° |
| 2026-04-24 22:19 | 32.88002 | -111.88230 | 43838 ft | 282 kts | 279° |
| 2026-04-24 22:20 | 32.88486 | -111.90493 | 43836 ft | 281 kts | 277° |
| 2026-04-24 22:20 | 32.88768 | -111.92775 | 43837 ft | 278 kts | 272° |
| 2026-04-24 22:20 | 32.88979 | -111.95064 | 43829 ft | 278 kts | 272° |
| 2026-04-24 22:20 | 32.89199 | -111.97353 | 43834 ft | 278 kts | 272° |
| 2026-04-24 22:21 | 32.89418 | -111.99638 | 43821 ft | 278 kts | 272° |
| 2026-04-24 22:21 | 32.89632 | -112.01927 | 43824 ft | 278 kts | 272° |
| 2026-04-24 22:21 | 32.89847 | -112.04211 | 43820 ft | 278 kts | 272° |
| 2026-04-24 22:21 | 32.90062 | -112.06500 | 43823 ft | 278 kts | 272° |
| 2026-04-24 22:22 | 32.90276 | -112.08785 | 43811 ft | 277 kts | 272° |
| 2026-04-24 22:22 | 32.90491 | -112.11072 | 43806 ft | 277 kts | 272° |
| 2026-04-24 22:22 | 32.90700 | -112.13323 | 43803 ft | 277 kts | 272° |
| 2026-04-24 22:22 | 32.90914 | -112.15605 | 43806 ft | 277 kts | 272° |
| 2026-04-24 22:23 | 32.91125 | -112.17890 | 43799 ft | 277 kts | 272° |
| 2026-04-24 22:23 | 32.91338 | -112.20169 | 43796 ft | 277 kts | 272° |
| 2026-04-24 22:23 | 32.91548 | -112.22451 | 43795 ft | 277 kts | 272° |
| 2026-04-24 22:23 | 32.91759 | -112.24733 | 43796 ft | 277 kts | 272° |
| 2026-04-24 22:24 | 32.91969 | -112.27013 | 43796 ft | 277 kts | 272° |
| 2026-04-24 22:24 | 32.92180 | -112.29295 | 43796 ft | 277 kts | 272° |
| 2026-04-24 22:24 | 32.92389 | -112.31577 | 43796 ft | 277 kts | 272° |
| 2026-04-24 22:24 | 32.92597 | -112.33834 | 43804 ft | 277 kts | 272° |
| 2026-04-24 22:25 | 32.92806 | -112.36115 | 43802 ft | 277 kts | 272° |
| 2026-04-24 22:25 | 32.93012 | -112.38397 | 43799 ft | 276 kts | 272° |
| 2026-04-24 22:25 | 32.93221 | -112.40673 | 43805 ft | 276 kts | 272° |
| 2026-04-24 22:25 | 32.93427 | -112.42944 | 43807 ft | 276 kts | 272° |
| 2026-04-24 22:26 | 32.93632 | -112.45213 | 43803 ft | 275 kts | 272° |
| 2026-04-24 22:26 | 32.93840 | -112.47480 | 43810 ft | 275 kts | 272° |
| 2026-04-24 22:26 | 32.94042 | -112.49744 | 43808 ft | 275 kts | 272° |
| 2026-04-24 22:26 | 32.94247 | -112.52003 | 43809 ft | 274 kts | 272° |
| 2026-04-24 22:27 | 32.94448 | -112.54238 | 43809 ft | 274 kts | 272° |
| 2026-04-24 22:27 | 32.94651 | -112.56491 | 43811 ft | 274 kts | 272° |
| 2026-04-24 22:27 | 32.94853 | -112.58744 | 43811 ft | 273 kts | 272° |
| 2026-04-24 22:27 | 32.95053 | -112.60996 | 43812 ft | 273 kts | 272° |
| 2026-04-24 22:28 | 32.95256 | -112.63243 | 43811 ft | 273 kts | 272° |
| 2026-04-24 22:28 | 32.95450 | -112.65492 | 43814 ft | 272 kts | 271° |
| 2026-04-24 22:28 | 32.95473 | -112.67732 | 43815 ft | 270 kts | 266° |
| 2026-04-24 22:28 | 32.95290 | -112.69957 | 43814 ft | 270 kts | 260° |
| 2026-04-24 22:29 | 32.94697 | -112.74361 | 43826 ft | 269 kts | 261° |
| 2026-04-24 22:29 | 32.94406 | -112.76560 | 43818 ft | 269 kts | 261° |
| 2026-04-24 22:29 | 32.94108 | -112.78753 | 43814 ft | 268 kts | 261° |
| 2026-04-24 22:30 | 32.93813 | -112.80949 | 43812 ft | 268 kts | 261° |
| 2026-04-24 22:30 | 32.93520 | -112.83112 | 43812 ft | 268 kts | 261° |
| 2026-04-24 22:30 | 32.93226 | -112.85305 | 43812 ft | 268 kts | 261° |
| 2026-04-24 22:30 | 32.92929 | -112.87492 | 43807 ft | 267 kts | 261° |
| 2026-04-24 22:31 | 32.92634 | -112.89678 | 43806 ft | 267 kts | 260° |
| 2026-04-24 22:31 | 32.92339 | -112.91859 | 43805 ft | 267 kts | 261° |
| 2026-04-24 22:31 | 32.92042 | -112.94042 | 43805 ft | 267 kts | 261° |
| 2026-04-24 22:31 | 32.91746 | -112.96224 | 43813 ft | 267 kts | 261° |
| 2026-04-24 22:32 | 32.91449 | -112.98402 | 43803 ft | 267 kts | 261° |
| 2026-04-24 22:32 | 32.91151 | -113.00582 | 43795 ft | 266 kts | 261° |
| 2026-04-24 22:32 | 32.90856 | -113.02760 | 43796 ft | 266 kts | 261° |
| 2026-04-24 22:32 | 32.90560 | -113.04907 | 43796 ft | 266 kts | 261° |
| 2026-04-24 22:33 | 32.90264 | -113.07082 | 43792 ft | 266 kts | 261° |
| 2026-04-24 22:33 | 32.89965 | -113.09262 | 43793 ft | 266 kts | 261° |
| 2026-04-24 22:33 | 32.89667 | -113.11435 | 43791 ft | 266 kts | 261° |
| 2026-04-24 22:33 | 32.89370 | -113.13606 | 43797 ft | 266 kts | 261° |
| 2026-04-24 22:34 | 32.89070 | -113.15783 | 43790 ft | 266 kts | 261° |
| 2026-04-24 22:34 | 32.88770 | -113.17956 | 43785 ft | 266 kts | 260° |
| 2026-04-24 22:34 | 32.88470 | -113.20131 | 43788 ft | 266 kts | 261° |
| 2026-04-24 22:34 | 32.88170 | -113.22305 | 43787 ft | 266 kts | 260° |
| 2026-04-24 22:35 | 32.87870 | -113.24481 | 43794 ft | 266 kts | 261° |
| 2026-04-24 22:35 | 32.87572 | -113.26625 | 43788 ft | 266 kts | 260° |
| 2026-04-24 22:35 | 32.87273 | -113.28792 | 43786 ft | 265 kts | 261° |
| 2026-04-24 22:35 | 32.86970 | -113.30960 | 43786 ft | 265 kts | 261° |
| 2026-04-24 22:36 | 32.86673 | -113.33118 | 43785 ft | 264 kts | 260° |
| 2026-04-24 22:36 | 32.86370 | -113.35280 | 43791 ft | 264 kts | 261° |
| 2026-04-24 22:36 | 32.86072 | -113.37430 | 43790 ft | 263 kts | 260° |
| 2026-04-24 22:36 | 32.85771 | -113.39573 | 43784 ft | 263 kts | 261° |
| 2026-04-24 22:37 | 32.85473 | -113.41711 | 43786 ft | 262 kts | 260° |
| 2026-04-24 22:37 | 32.85174 | -113.43855 | 43792 ft | 262 kts | 261° |
| 2026-04-24 22:37 | 32.84878 | -113.45961 | 43794 ft | 261 kts | 260° |
| 2026-04-24 22:37 | 32.84581 | -113.48091 | 43786 ft | 261 kts | 260° |
| 2026-04-24 22:38 | 32.84279 | -113.50224 | 43782 ft | 261 kts | 261° |
| 2026-04-24 22:38 | 32.83982 | -113.52347 | 43793 ft | 260 kts | 260° |
| 2026-04-24 22:38 | 32.83683 | -113.54466 | 43792 ft | 260 kts | 261° |
| 2026-04-24 22:38 | 32.83384 | -113.56591 | 43787 ft | 260 kts | 260° |
| 2026-04-24 22:39 | 32.83085 | -113.58706 | 43792 ft | 259 kts | 260° |
| 2026-04-24 22:39 | 32.82787 | -113.60819 | 43790 ft | 259 kts | 260° |
| 2026-04-24 22:39 | 32.82488 | -113.62934 | 43792 ft | 259 kts | 260° |
| 2026-04-24 22:39 | 32.82188 | -113.65047 | 43792 ft | 259 kts | 260° |
| 2026-04-24 22:40 | 32.81889 | -113.67163 | 43790 ft | 259 kts | 260° |
| 2026-04-24 22:40 | 32.81586 | -113.69281 | 43791 ft | 259 kts | 260° |
| 2026-04-24 22:40 | 32.81292 | -113.71364 | 43791 ft | 259 kts | 260° |
| 2026-04-24 22:40 | 32.80989 | -113.73475 | 43790 ft | 259 kts | 260° |
| 2026-04-24 22:41 | 32.80690 | -113.75588 | 43793 ft | 259 kts | 260° |
| 2026-04-24 22:41 | 32.80388 | -113.77697 | 43793 ft | 259 kts | 260° |
| 2026-04-24 22:41 | 32.80086 | -113.79810 | 43794 ft | 259 kts | 260° |
| 2026-04-24 22:41 | 32.79784 | -113.81918 | 43797 ft | 259 kts | 260° |
| 2026-04-24 22:42 | 32.79481 | -113.84026 | 43798 ft | 259 kts | 260° |
| 2026-04-24 22:42 | 32.79180 | -113.86137 | 43797 ft | 259 kts | 260° |
| 2026-04-24 22:42 | 32.78879 | -113.88217 | 43800 ft | 258 kts | 260° |
| 2026-04-24 22:42 | 32.78579 | -113.90322 | 43799 ft | 259 kts | 260° |
| 2026-04-24 22:43 | 32.78273 | -113.92432 | 43799 ft | 258 kts | 260° |
| 2026-04-24 22:43 | 32.77972 | -113.94538 | 43801 ft | 259 kts | 260° |
| 2026-04-24 22:43 | 32.77676 | -113.96642 | 43799 ft | 258 kts | 262° |
| 2026-04-24 22:43 | 32.77566 | -113.98777 | 43797 ft | 259 kts | 267° |
| 2026-04-24 22:44 | 32.77553 | -114.00917 | 43800 ft | 259 kts | 267° |
| 2026-04-24 22:44 | 32.77530 | -114.03060 | 43801 ft | 259 kts | 267° |
| 2026-04-24 22:44 | 32.77503 | -114.05202 | 43802 ft | 259 kts | 267° |
| 2026-04-24 22:44 | 32.77494 | -114.07347 | 43804 ft | 259 kts | 269° |
| 2026-04-24 22:45 | 32.77603 | -114.09484 | 43808 ft | 260 kts | 270° |
| 2026-04-24 22:45 | 32.77685 | -114.11630 | 43807 ft | 260 kts | 269° |
| 2026-04-24 22:45 | 32.77763 | -114.13778 | 43808 ft | 260 kts | 269° |
| 2026-04-24 22:45 | 32.77849 | -114.15897 | 43812 ft | 260 kts | 270° |
| 2026-04-24 22:46 | 32.77937 | -114.18043 | 43808 ft | 260 kts | 269° |
| 2026-04-24 22:46 | 32.78022 | -114.20191 | 43811 ft | 260 kts | 269° |
| 2026-04-24 22:46 | 32.78108 | -114.22338 | 43812 ft | 260 kts | 270° |
| 2026-04-24 22:46 | 32.78192 | -114.24491 | 43815 ft | 261 kts | 269° |
| 2026-04-24 22:47 | 32.78278 | -114.26645 | 43816 ft | 261 kts | 270° |
| 2026-04-24 22:47 | 32.78363 | -114.28801 | 43816 ft | 261 kts | 269° |
| 2026-04-24 22:47 | 32.78446 | -114.30959 | 43819 ft | 262 kts | 269° |
| 2026-04-24 22:47 | 32.78529 | -114.33120 | 43820 ft | 262 kts | 269° |
| 2026-04-24 22:48 | 32.78615 | -114.35289 | 43823 ft | 262 kts | 269° |
| 2026-04-24 22:48 | 32.78733 | -114.37451 | 43821 ft | 263 kts | 273° |
| 2026-04-24 22:48 | 32.79065 | -114.39629 | 43548 ft | 272 kts | 278° |
| 2026-04-24 22:48 | 32.79627 | -114.41829 | 43196 ft | 284 kts | 282° |
| 2026-04-24 22:49 | 32.80246 | -114.44059 | 42827 ft | 292 kts | 282° |
| 2026-04-24 22:49 | 32.80883 | -114.46381 | 42437 ft | 297 kts | 282° |
| 2026-04-24 22:49 | 32.81528 | -114.48733 | 42043 ft | 301 kts | 282° |
| 2026-04-24 22:49 | 32.82186 | -114.51113 | 41642 ft | 304 kts | 282° |
| 2026-04-24 22:50 | 32.82847 | -114.53519 | 41233 ft | 307 kts | 282° |
| 2026-04-24 22:50 | 32.83513 | -114.55939 | 40827 ft | 309 kts | 282° |
| 2026-04-24 22:50 | 32.84181 | -114.58370 | 40425 ft | 309 kts | 283° |
| 2026-04-24 22:50 | 32.84847 | -114.60802 | 40005 ft | 308 kts | 283° |
| 2026-04-24 22:51 | 32.85513 | -114.63229 | 39595 ft | 308 kts | 283° |
| 2026-04-24 22:51 | 32.86175 | -114.65651 | 39189 ft | 308 kts | 283° |
| 2026-04-24 22:51 | 32.86838 | -114.68069 | 38783 ft | 307 kts | 283° |
| 2026-04-24 22:51 | 32.87407 | -114.70503 | 38357 ft | 304 kts | 278° |
| 2026-04-24 22:52 | 32.87745 | -114.72934 | 37942 ft | 300 kts | 274° |
| 2026-04-24 22:52 | 32.87865 | -114.75395 | 37545 ft | 296 kts | 269° |
| 2026-04-24 22:52 | 32.87807 | -114.77840 | 37152 ft | 294 kts | 267° |
| 2026-04-24 22:52 | 32.87760 | -114.80267 | 36768 ft | 293 kts | 268° |
| 2026-04-24 22:53 | 32.87716 | -114.82688 | 36381 ft | 293 kts | 268° |
| 2026-04-24 22:53 | 32.87661 | -114.85113 | 35996 ft | 294 kts | 268° |
| 2026-04-24 22:53 | 32.87609 | -114.87555 | 35613 ft | 296 kts | 268° |
| 2026-04-24 22:53 | 32.87551 | -114.90015 | 35223 ft | 298 kts | 268° |
| 2026-04-24 22:54 | 32.87497 | -114.92489 | 34829 ft | 300 kts | 268° |
| 2026-04-24 22:54 | 32.87439 | -114.94977 | 34436 ft | 302 kts | 268° |
| 2026-04-24 22:54 | 32.87383 | -114.97477 | 34043 ft | 304 kts | 268° |
| 2026-04-24 22:54 | 32.87324 | -114.99969 | 33629 ft | 306 kts | 268° |
| 2026-04-24 22:55 | 32.87266 | -115.02494 | 33226 ft | 306 kts | 268° |
| 2026-04-24 22:55 | 32.87207 | -115.05038 | 32819 ft | 306 kts | 268° |
| 2026-04-24 22:55 | 32.87145 | -115.07567 | 32418 ft | 306 kts | 268° |
| 2026-04-24 22:55 | 32.87087 | -115.10106 | 32013 ft | 307 kts | 267° |
| 2026-04-24 22:56 | 32.87019 | -115.12671 | 31608 ft | 313 kts | 267° |
| 2026-04-24 22:56 | 32.86961 | -115.15284 | 31193 ft | 317 kts | 267° |
| 2026-04-24 22:56 | 32.86894 | -115.17921 | 30772 ft | 320 kts | 267° |
| 2026-04-24 22:56 | 32.86829 | -115.20586 | 30347 ft | 323 kts | 267° |
| 2026-04-24 22:57 | 32.86760 | -115.23266 | 29914 ft | 326 kts | 266° |
| 2026-04-24 22:57 | 32.86691 | -115.25957 | 29451 ft | 333 kts | 266° |
| 2026-04-24 22:57 | 32.86619 | -115.28739 | 29010 ft | 340 kts | 267° |
| 2026-04-24 22:57 | 32.86551 | -115.31578 | 28516 ft | 345 kts | 267° |
| 2026-04-24 22:58 | 32.86430 | -115.34449 | 28054 ft | 349 kts | 263° |
| 2026-04-24 22:58 | 32.86012 | -115.37300 | 27592 ft | 351 kts | 259° |
| 2026-04-24 22:58 | 32.85747 | -115.39208 | 27284 ft | 353 kts | 261° |
| 2026-04-24 22:58 | 32.85247 | -115.43051 | 26662 ft | 356 kts | 261° |
| 2026-04-24 22:59 | 32.84831 | -115.45962 | 26189 ft | 358 kts | 261° |
| 2026-04-24 22:59 | 32.84414 | -115.48879 | 25808 ft | 356 kts | 261° |
| 2026-04-24 22:59 | 32.83489 | -115.54527 | 25495 ft | 345 kts | 260° |
| 2026-04-24 23:00 | 32.83187 | -115.56393 | 25217 ft | 348 kts | 260° |
| 2026-04-24 23:00 | 32.82728 | -115.59227 | 24810 ft | 351 kts | 260° |
| 2026-04-24 23:00 | 32.82263 | -115.62076 | 24332 ft | 353 kts | 260° |
| 2026-04-24 23:00 | 32.81787 | -115.64949 | 23932 ft | 354 kts | 260° |
| 2026-04-24 23:01 | 32.81319 | -115.67828 | 23484 ft | 355 kts | 260° |
| 2026-04-24 23:01 | 32.80841 | -115.70713 | 23002 ft | 355 kts | 260° |
| 2026-04-24 23:01 | 32.80371 | -115.73596 | 22540 ft | 354 kts | 260° |
| 2026-04-24 23:01 | 32.79894 | -115.76465 | 22093 ft | 353 kts | 260° |
| 2026-04-24 23:02 | 32.79431 | -115.79304 | 21655 ft | 344 kts | 260° |
| 2026-04-24 23:02 | 32.78974 | -115.82049 | 21230 ft | 334 kts | 260° |
| 2026-04-24 23:02 | 32.78537 | -115.84726 | 20814 ft | 325 kts | 262° |
| 2026-04-24 23:02 | 32.78351 | -115.87328 | 20415 ft | 317 kts | 268° |
| 2026-04-24 23:03 | 32.78165 | -115.89915 | 20025 ft | 313 kts | 265° |
| 2026-04-24 23:03 | 32.77938 | -115.92470 | 19637 ft | 309 kts | 266° |
| 2026-04-24 23:03 | 32.77755 | -115.95002 | 19259 ft | 306 kts | 266° |
| 2026-04-24 23:03 | 32.77570 | -115.97516 | 18877 ft | 306 kts | 266° |
| 2026-04-24 23:04 | 32.77384 | -116.00050 | 18499 ft | 309 kts | 266° |
| 2026-04-24 23:04 | 32.77187 | -116.02601 | 18111 ft | 310 kts | 266° |
| 2026-04-24 23:04 | 32.76998 | -116.05162 | 17706 ft | 311 kts | 266° |
| 2026-04-24 23:04 | 32.76801 | -116.07721 | 17318 ft | 311 kts | 265° |
| 2026-04-24 23:05 | 32.76606 | -116.10283 | 16927 ft | 311 kts | 266° |
| 2026-04-24 23:05 | 32.76416 | -116.12842 | 16544 ft | 311 kts | 266° |
| 2026-04-24 23:05 | 32.76218 | -116.15371 | 16155 ft | 310 kts | 265° |
| 2026-04-24 23:05 | 32.76027 | -116.17926 | 15770 ft | 310 kts | 265° |
| 2026-04-24 23:06 | 32.75827 | -116.20481 | 15382 ft | 310 kts | 265° |
| 2026-04-24 23:06 | 32.75634 | -116.23046 | 14986 ft | 311 kts | 264° |
| 2026-04-24 23:06 | 32.75441 | -116.25607 | 14601 ft | 311 kts | 265° |
| 2026-04-24 23:06 | 32.75230 | -116.28165 | 14214 ft | 309 kts | 265° |
| 2026-04-24 23:07 | 32.75041 | -116.30705 | 13824 ft | 307 kts | 265° |
| 2026-04-24 23:07 | 32.74846 | -116.33190 | 13421 ft | 304 kts | 265° |
| 2026-04-24 23:07 | 32.74655 | -116.35683 | 13040 ft | 302 kts | 265° |
| 2026-04-24 23:07 | 32.74464 | -116.38161 | 12658 ft | 300 kts | 265° |
| 2026-04-24 23:08 | 32.74269 | -116.40627 | 12287 ft | 299 kts | 265° |
| 2026-04-24 23:08 | 32.74076 | -116.43084 | 12074 ft | 294 kts | 265° |
| 2026-04-24 23:08 | 32.73893 | -116.45459 | 12068 ft | 283 kts | 265° |
| 2026-04-24 23:08 | 32.73708 | -116.47758 | 12070 ft | 276 kts | 265° |
| 2026-04-24 23:09 | 32.73534 | -116.50002 | 12076 ft | 271 kts | 265° |
| 2026-04-24 23:09 | 32.73310 | -116.52217 | 12073 ft | 270 kts | 263° |
| 2026-04-24 23:09 | 32.73104 | -116.54448 | 12076 ft | 272 kts | 265° |
| 2026-04-24 23:09 | 32.72898 | -116.56680 | 12085 ft | 272 kts | 264° |
| 2026-04-24 23:10 | 32.72675 | -116.58902 | 12088 ft | 271 kts | 264° |
| 2026-04-24 23:10 | 32.72460 | -116.61126 | 12084 ft | 271 kts | 264° |
| 2026-04-24 23:10 | 32.72253 | -116.63324 | 12083 ft | 270 kts | 264° |
| 2026-04-24 23:10 | 32.72034 | -116.65530 | 12088 ft | 269 kts | 264° |
| 2026-04-24 23:11 | 32.71868 | -116.67746 | 12091 ft | 268 kts | 266° |
| 2026-04-24 23:11 | 32.71694 | -116.69952 | 12087 ft | 268 kts | 264° |
| 2026-04-24 23:11 | 32.71509 | -116.72144 | 12090 ft | 266 kts | 265° |
| 2026-04-24 23:11 | 32.71338 | -116.74334 | 12093 ft | 267 kts | 265° |
| 2026-04-24 23:12 | 32.71166 | -116.76525 | 12072 ft | 263 kts | 265° |
| 2026-04-24 23:12 | 32.71002 | -116.78689 | 11646 ft | 263 kts | 265° |
| 2026-04-24 23:12 | 32.70819 | -116.80861 | 11068 ft | 266 kts | 264° |
| 2026-04-24 23:12 | 32.70409 | -116.82957 | 10292 ft | 250 kts | 251° |
| 2026-04-24 23:13 | 32.69792 | -116.84794 | 8970 ft | 232 kts | 251° |
| 2026-04-24 23:13 | 32.69268 | -116.86580 | 7636 ft | 226 kts | 252° |
| 2026-04-24 23:13 | 32.68727 | -116.88311 | 6378 ft | 219 kts | 252° |
| 2026-04-24 23:13 | 32.68290 | -116.90004 | 5988 ft | 208 kts | 251° |
| 2026-04-24 23:14 | 32.67765 | -116.91592 | 5983 ft | 212 kts | 249° |
| 2026-04-24 23:14 | 32.67395 | -116.93317 | 5978 ft | 219 kts | 267° |
| 2026-04-24 23:14 | 32.67535 | -116.95124 | 5960 ft | 226 kts | 281° |
| 2026-04-24 23:14 | 32.68009 | -116.97043 | 5350 ft | 247 kts | 287° |
| 2026-04-24 23:15 | 32.68493 | -116.98949 | 4618 ft | 241 kts | 285° |
| 2026-04-24 23:15 | 32.68943 | -117.00817 | 3862 ft | 223 kts | 285° |
| 2026-04-24 23:15 | 32.69358 | -117.02491 | 3118 ft | 202 kts | 285° |
| 2026-04-24 23:15 | 32.69727 | -117.04035 | 2695 ft | 184 kts | 284° |
| 2026-04-24 23:16 | 32.70063 | -117.05397 | 2551 ft | 157 kts | 284° |
| 2026-04-24 23:16 | 32.70385 | -117.06572 | 2329 ft | 146 kts | 285° |
| 2026-04-24 23:16 | 32.70695 | -117.07695 | 2103 ft | 145 kts | 285° |
| 2026-04-24 23:16 | 32.70976 | -117.08807 | 1947 ft | 136 kts | 283° |
| 2026-04-24 23:17 | 32.71207 | -117.09788 | 1993 ft | 117 kts | 281° |
| 2026-04-24 23:17 | 32.71425 | -117.10719 | 1948 ft | 115 kts | 282° |
| 2026-04-24 23:17 | 32.71618 | -117.11623 | 1888 ft | 113 kts | 281° |
| 2026-04-24 23:17 | 32.71834 | -117.12537 | 1730 ft | 115 kts | 283° |
| 2026-04-24 23:18 | 32.72041 | -117.13405 | 1555 ft | 107 kts | 283° |
| 2026-04-24 23:18 | 32.72170 | -117.13965 | 1388 ft | 102 kts | 281° |
| 2026-04-24 23:18 | 32.72344 | -117.14754 | 1072 ft | 98 kts | 279° |
| 2026-04-24 23:18 | 32.72536 | -117.15517 | 809 ft | 97 kts | 282° |
| 2026-04-24 23:19 | 32.72729 | -117.16275 | 585 ft | 95 kts | 280° |
| 2026-04-24 23:19 | 32.72893 | -117.17044 | 408 ft | 97 kts | 282° |
| 2026-04-24 23:19 | 32.73071 | -117.17816 | 124 ft | 95 kts | 285° |
| 2026-04-24 23:19 | 32.73216 | -117.18405 | 23 ft | 83 kts | 286° |
| 2026-04-24 23:20 | 32.73328 | -117.18789 | 18 ft | 16 kts | 314° |
| 2026-04-24 23:20 | 32.73403 | -117.18807 | 17 ft | 0 kts | 27° |
| 2026-04-24 23:20 | 32.73406 | -117.18806 | 17 ft | 3 kts | 27° |
| 2026-04-24 23:21 | 32.73420 | -117.18765 | 16 ft | 8 kts | 98° |
| 2026-04-24 23:21 | 32.73403 | -117.18688 | 17 ft | 11 kts | 106° |
| 2026-04-24 23:21 | 32.73379 | -117.18594 | 19 ft | 12 kts | 107° |
| 2026-04-24 23:21 | 32.73354 | -117.18488 | 22 ft | 14 kts | 105° |
| 2026-04-24 23:22 | 32.73324 | -117.18358 | 20 ft | 18 kts | 106° |
| 2026-04-24 23:22 | 32.73284 | -117.18201 | 18 ft | 21 kts | 107° |
| 2026-04-24 23:22 | 32.73246 | -117.18043 | 18 ft | 14 kts | 104° |
| 2026-04-24 23:22 | 32.73272 | -117.17977 | 19 ft | 10 kts | 17° |
| 2026-04-24 23:23 | 32.73337 | -117.17957 | 21 ft | 9 kts | 17° |
| 2026-04-24 23:23 | 32.73387 | -117.17920 | 21 ft | 6 kts | 53° |
| 2026-04-24 23:23 | 32.73408 | -117.17919 | 24 ft | 3 kts | 228° |
| 2026-04-24 23:23 | 32.73404 | -117.17923 | 22 ft | 0 kts | 221° |